Bodensee (Kressbronn): 6,7°C  -  Teich der Wetterzentrale Bad Schussenried: 5,6°C |  Schneehöhe Kreuzthal-Steinberg (930 m ü. NN): 8 cm   
01.04.2020Höhe
ü. NN
ZeitTemperatur (°C)Nieder-
schlag
Luft-
feuchte
Luft-
druck
Wind
StationaktuellMinimumMaximumaktuellMaximum
Aldingen654 m05:46-2,5-3,2 (07:35)-0,3 (16:02)0,0 l/m²74%1023,51,9 km/h (1 Bft) O-SO29,6 km/h (5 Bft) W (14:48)
Allmendingen541 m05:45-6,2-6,2 (07:35)-2,1 (15:10)0,0 l/m²87%1023,41,6 km/h (1 Bft) NO35,4 km/h (5 Bft) O (15:35)
Altshausen574 m05:45-3,6-3,9 (05:14)-1,1 (00:16)0,0 l/m²66%1021,16,4 km/h (2 Bft) N8,0 km/h (2 Bft) N-NO (01:07)
Amstetten-Reutti663 m05:45-4,5-4,5 (05:45)-1,5 (16:55)0,0 l/m²86%1023,04,8 km/h (1 Bft) NO48,3 km/h (6 Bft) W (15:55)
Amtzell-Grenis677 m05:45-3,7-3,8 (05:45)-1,4 (00:00)0,0 l/m²62%1022,86,4 km/h (2 Bft) W-SW6,4 km/h (2 Bft) W-SW (00:00)
Aulendorf570 m05:45-2,6-2,6 (05:29)-0,5 (00:00)0,0 l/m²70%1021,98,0 km/h (2 Bft) NO14,5 km/h (3 Bft) O-NO (05:13)
Bad Krozingen233 m05:45-1,8-1,8 (05:45)3,7 (16:05)0,0 l/m²76%1023,21,7 km/h (1 Bft) S-SW38,1 km/h (5 Bft) N (17:05)
Bad Saulgau595 m05:45-4,7-4,7 (06:45)-1,9 (15:00)0,0 l/m²86%1021,70,0 km/h (0 Bft) S-SO25,7 km/h (4 Bft) S (11:35)
Bad Saulgau, Mannsgrab588 m05:43-5,7-6,1 (05:34)-1,7 (00:17)0,0 l/m²88%1024,30,0 km/h (0 Bft) N0,0 km/h (0 Bft) N (00:00)
Bad Saulgau-Lampertsweiler627 m05:45-4,3-4,3 (05:45)0,2 (00:00)0,0 l/m²80%1025,04,8 km/h (1 Bft) N-NW22,5 km/h (4 Bft) N-NW (01:15)
Bad Schussenried572 m05:45-3,8-3,8 (05:30)-1,1 (00:00)0,0 l/m²86%1021,40,0 km/h (0 Bft) NO9,7 km/h (2 Bft) NO (03:15)
Bergatreute615 m01:45-0,7-0,7 (00:45)0,0 (00:00)0,0 l/m²77%1023,512,9 km/h (3 Bft) NO16,1 km/h (3 Bft) O-NO (01:40)
Biberach (Riss), Boehringer533 m05:50-3,9-4,0 (05:40)-1,1 (00:30)0,0 l/m²89%1022,14,7 km/h (1 Bft) N11,9 km/h (3 Bft) N (03:00)
Biberach (Riss), Realschule553 m05:45-3,8-3,8 (05:25)-0,3 (00:00)0,0 l/m²87%1023,99,7 km/h (2 Bft) NW11,3 km/h (2 Bft) N-NO (03:35)
Burgrieden523 m05:45-3,7-3,7 (05:35)-0,4 (00:00)0,0 l/m²81%1023,00,0 km/h (0 Bft) NO4,8 km/h (1 Bft) O-NO (02:50)
Burgrieden-Hochstetten510 m05:40-4,2-4,2 (06:50)-0,9 (15:40)0,0 l/m²88%1023,43,2 km/h (1 Bft) N-NO25,7 km/h (4 Bft) NO (12:55)
Ebersbach579 m05:45-3,6-3,6 (05:45)-0,1 (00:00)0,0 l/m²84%1023,30,0 km/h (0 Bft) N16,1 km/h (3 Bft) NO (01:25)
Ebersbach-Boos605 m05:45-4,1-4,1 (05:45)-0,1 (00:00)0,0 l/m²86%1023,18,0 km/h (2 Bft) N-NO22,5 km/h (4 Bft) O (01:00)
Ebersbach-Menzenweiler661 m05:45-3,4-3,4 (05:45)-0,6 (00:00)0,0 l/m²86%1023,017,7 km/h (3 Bft) NO24,1 km/h (4 Bft) O-NO (01:05)
Ehingen535 m01:10-2,5-2,5 (01:10)-1,3 (00:05)0,0 l/m²70%1025,40,0 km/h (0 Bft) N-NO5,0 km/h (1 Bft) N-NO (00:15)
Erlenmoos645 m05:45-3,1-3,1 (05:45)-0,9 (00:00)0,0 l/m²85%1022,96,4 km/h (2 Bft) NO12,9 km/h (3 Bft) O-NO (01:35)
Ertingen569 m05:45-3,3-3,3 (05:40)-0,6 (00:00)0,0 l/m²84%1022,99,7 km/h (2 Bft) NW16,1 km/h (3 Bft) N-NO (04:10)
Friedrichshafen405 m05:45-1,3-1,3 (06:45)0,9 (13:30)0,0 l/m²76%1022,66,4 km/h (2 Bft) O-NO27,4 km/h (4 Bft) NO (15:10)
Günzburg443 m05:45-4,6-4,6 (05:35)-1,1 (00:00)0,0 l/m²87%1020,90,0 km/h (0 Bft) NO0,0 km/h (0 Bft) NO (00:00)
Hochdorf-Appendorf537 m05:45-5,4-5,4 (05:45)-1,7 (00:15)0,0 l/m²66%1022,86,4 km/h (2 Bft) N-NO14,5 km/h (3 Bft) N-NW (03:20)
Höchsten802 m05:45-3,2-3,4 (05:35)-1,4 (00:00)0,0 l/m²78%1020,620,9 km/h (4 Bft) NO25,7 km/h (4 Bft) NO (02:45)
Horgenzell618 m05:45-1,9-1,9 (03:45)-0,6 (00:05)0,0 l/m²76%1020,34,8 km/h (1 Bft) N-NO19,3 km/h (3 Bft) N-NO (00:50)
Hoßkirch632 m05:45-6,2-6,2 (05:45)-1,0 (00:15)0,0 l/m²86%1021,96,4 km/h (2 Bft) NO14,5 km/h (3 Bft) O-NO (00:20)
Isny, Am Dreifingerbach695 m05:45-4,2-4,4 (05:00)0,1 (01:00)0,0 l/m²82%1021,60,0 km/h (0 Bft) W14,5 km/h (3 Bft) O-NO (01:05)
Isny, Weidachweg706 m05:45-3,8-3,8 (05:45)0,3 (00:25)0,0 l/m²74%1023,80,0 km/h (0 Bft) W12,9 km/h (3 Bft) W (00:10)
Kappel-Grafenhausen163 m05:40-1,1-1,1 (06:55)3,3 (14:55)0,0 l/m²75%1021,36,4 km/h (2 Bft) N-NO30,6 km/h (5 Bft) N-NO (16:55)
Kißlegg-Staibshof709 m05:45-2,9-2,9 (05:40)-0,9 (00:00)0,0 l/m²81%1022,60,0 km/h (0 Bft) O-NO14,5 km/h (3 Bft) O (01:50)
Kressbronn398 m05:46-1,7-1,7 (05:44)1,4 (00:00)0,0 l/m²74%1021,41,6 km/h (1 Bft) NO22,5 km/h (4 Bft) NO (00:54)
Kreuzthal-Steinberg-Alpe930 m05:40-4,1-4,8 (04:00)-2,5 (00:00)0,0 l/m²87%1023,03,6 km/h (1 Bft) O-NO22,0 km/h (4 Bft) W-NW (00:10)
Kreuzthal-Steinberggipfel1040 m05:40-3,5-4,0 (02:20)-3,1 (00:10)-75%1023,017,3 km/h (3 Bft) O-NO37,1 km/h (5 Bft) O-SO (00:10)
Kristberg im Montafon (AT)1425 m05:45-6,5-6,6 (04:51)-5,3 (00:40)0,0 l/m²61%1026,40,0 km/h (0 Bft) O-NO10,1 km/h (2 Bft) NO (01:47)
Laupheim500 m05:45-3,4-3,4 (05:30)0,0 (00:00)0,0 l/m²82%1022,53,2 km/h (1 Bft) NO9,7 km/h (2 Bft) O-SO (00:20)
Leutkirch-Heggelbach670 m05:45-4,6-4,6 (05:40)-2,6 (00:30)0,0 l/m²86%1021,90,0 km/h (0 Bft) N-NO8,0 km/h (2 Bft) N-NO (03:30)
Lindau-Insel420 m05:45-1,0-1,0 (07:25)1,8 (14:55)0,0 l/m²71%1021,80,0 km/h (0 Bft) O-NO29,0 km/h (5 Bft) NO (17:05)
Lindau-Stadt412 m05:45-1,9-1,9 (07:25)1,2 (14:55)0,0 l/m²75%1022,00,0 km/h (0 Bft) NO33,8 km/h (5 Bft) N-NO (15:40)
Maierhöfen im Allgäu733 m05:45-3,3-3,3 (05:40)-1,2 (01:35)0,0 l/m²75%1022,03,2 km/h (1 Bft) O-NO25,7 km/h (4 Bft) O-SO (02:05)
Maselheim543 m05:45-4,8-4,8 (06:40)-2,3 (13:20)0,0 l/m²85%1023,43,2 km/h (1 Bft) NW24,1 km/h (4 Bft) O-NO (15:20)
Maselheim-Sulmingen548 m05:45-4,7-4,9 (06:40)-2,2 (15:15)0,0 l/m²89%1024,63,2 km/h (1 Bft) N20,9 km/h (4 Bft) N-NO (12:15)
Mietingen-Baltringen528 m05:45-4,7-4,7 (05:40)-1,3 (00:45)0,0 l/m²86%1024,90,0 km/h (0 Bft) O-NO4,8 km/h (1 Bft) N-NO (01:20)
Mindelheim-Apfeltrach620 m05:46-5,3-5,3 (05:36)-2,7 (00:00)0,0 l/m²88%1024,00,0 km/h (0 Bft) NO0,0 km/h (0 Bft) O-NO (00:00)
Mittelbiberach577 m05:46-4,1-4,3 (04:39)-1,0 (00:16)0,0 l/m²83%1024,14,8 km/h (1 Bft) NO11,2 km/h (2 Bft) NO (01:21)
Neresheim552 m05:00-6,2-6,2 (05:00)-2,0 (00:00)0,0 l/m²88%1022,10,0 km/h (0 Bft) O4,0 km/h (1 Bft) NO (01:00)
Neukirch570 m05:45-2,8-2,8 (06:05)-0,9 (14:35)0,0 l/m²80%1022,28,0 km/h (2 Bft) N-NO37,0 km/h (5 Bft) N-NO (11:55)
Ochsenhausen, Birkenstraße613 m05:45-5,0-5,0 (07:10)-2,2 (12:50)0,0 l/m²81%1023,40,0 km/h (0 Bft) NO3,2 km/h (1 Bft) S-SW (07:05)
Ochsenhausen, Unt. Wiesen575 m05:45-5,3-5,5 (05:35)-2,4 (00:00)0,0 l/m²88%1024,60,0 km/h (0 Bft) NO4,8 km/h (1 Bft) NO (00:00)
Opfenbach-Göritz561 m05:46-4,7-5,2 (05:22)-2,8 (00:00)0,0 l/m²76%1020,40,0 km/h (0 Bft) N-NO6,5 km/h (2 Bft) O-NO (00:18)
Ostrach619 m05:45-3,4-3,8 (04:15)-0,6 (00:00)0,0 l/m²88%1021,34,8 km/h (1 Bft) N-NW8,0 km/h (2 Bft) N-NW (04:40)
Ravensburg, Goethestraße428 m05:45-1,4-1,4 (05:40)1,3 (00:00)0,0 l/m²79%1021,914,5 km/h (3 Bft) O-NO14,5 km/h (3 Bft) O-NO (02:45)
Ravensburg-Wernsreute511 m05:45-2,9-2,9 (06:15)0,0 (15:50)0,0 l/m²81%1024,719,3 km/h (3 Bft) N35,4 km/h (5 Bft) N-NO (11:45)
Reichenbach an der Fils343 m05:45-1,8-1,8 (05:45)1,0 (00:00)0,0 l/m²76%1025,61,6 km/h (1 Bft) SO12,9 km/h (3 Bft) O-SO (05:10)
Riedlingen530 m05:45-2,8-2,8 (05:35)-1,0 (00:00)0,0 l/m²80%1023,20,0 km/h (0 Bft) NO0,0 km/h (0 Bft) N (00:00)
Rißtissen489 m05:45-2,8-2,8 (05:15)-0,2 (00:00)0,0 l/m²85%1020,80,0 km/h (0 Bft) O-NO8,0 km/h (2 Bft) O-NO (03:30)
Rottweil-Hausen681 m05:43-4,3-4,3 (04:46)-1,9 (00:00)0,0 l/m²83%1023,86,5 km/h (2 Bft) N6,5 km/h (2 Bft) N (02:14)
Schemmerhofen520 m05:452,72,7 (00:00)2,7 (00:00)0,0 l/m²55%1022,00,0 km/h (0 Bft) NO0,0 km/h (0 Bft) NO (00:00)
Silbertal im Montafon (AT)884 m05:45-4,1-4,1 (05:06)-1,6 (00:01)0,0 l/m²84%1026,10,0 km/h (0 Bft) O-NO0,0 km/h (0 Bft) O-NO (00:00)
Tettnang466 m05:44-1,1-1,1 (05:26)1,0 (00:00)0,0 l/m²71%1022,07,9 km/h (2 Bft) O-NO16,2 km/h (3 Bft) O-SO (01:07)
Tuttlingen648 m05:36-4,1-4,1 (05:26)-2,1 (00:01)0,0 l/m²74%1023,90,0 km/h (0 Bft) NO5,2 km/h (1 Bft) W-SW (03:26)
Tuttlingen, Möhringer-Vorstadt711 m05:45-3,9-4,2 (07:10)-2,4 (16:05)0,0 l/m²82%1022,76,4 km/h (2 Bft) NO25,7 km/h (4 Bft) N-NW (12:35)
Ummendorf547 m05:45-3,7-3,8 (05:35)-0,7 (00:10)0,0 l/m²67%1024,00,0 km/h (0 Bft) O-NO16,1 km/h (3 Bft) O (01:05)
Ummendorf-Fischbach558 m05:45-5,0-5,0 (05:45)-1,9 (01:25)0,0 l/m²69%1023,90,0 km/h (0 Bft) S-SO4,8 km/h (1 Bft) O (04:20)
Waldburg707 m05:45-2,9-2,9 (05:45)-0,8 (00:00)0,0 l/m²79%1021,78,0 km/h (2 Bft) N19,3 km/h (3 Bft) N (02:35)
Waltenhofen im Allgäu720 m05:40-7,1-7,2 (05:30)-2,2 (01:05)0,0 l/m²89%1022,80,0 km/h (0 Bft) N-NW17,7 km/h (3 Bft) N-NW (11:50)
Wangen, Südring548 m05:45-3,8-3,8 (05:43)-0,3 (00:00)0,0 l/m²83%1021,86,5 km/h (2 Bft) O-NO13,0 km/h (3 Bft) NO (01:25)
Warthausen-Birkenhard581 m05:44-4,3-4,3 (05:35)-1,2 (00:00)0,0 l/m²86%1023,58,6 km/h (2 Bft) N11,9 km/h (3 Bft) N-NO (02:49)
Winterlingen785 m05:45-5,4-5,5 (05:30)-2,8 (01:00)0,0 l/m²84%1022,71,8 km/h (1 Bft) NO3,6 km/h (1 Bft) NO (00:55)

Werbung
niederschlagsdatenbank | info | login - erfassung

Sollten Sie Interesse haben, an der Niederschlagsdatenbank teilzunehmen, finden Sie > hier < weitere Informationen.

Niederschlagsdaten der Station Bad Saulgau-Lampertsweiler - Valentinstr. 26

Winfried Dehm

Niederschlagsstation aufgenommen ins Stationsnetz der Wetterwarte Süd am 28.12.2009
Monat: .
Anmerkung:0,0 = nicht messbarer Niederschlag
 -  = kein Niederschlag

Stationsdaten

Höhe

635 m

Lage

Auf Google Maps ansehen

Beschreibung

Lampertsweiler ist ein kleiner Teilort von Bad Saulgau mit 303 Einwohnern. 1122 erstmals erwähnt , gehörten wir zur Grafschaft Friedberg u. zum Amt Sießen. 1786 an Thurn u. Taxis u. 1806 an Württemberg. Im Pestjahr 1628 starb Lampertsweiler bis auf 12 Personen aus. Unser Ort liegt direkt an der Europäischen Wasserscheide. Durch unseren Ort führt der Geologische Wanderweg der Stadt Bad Saulgau zum Booser Ried, wo früher Torf abgebaut wurde.
< Januar 2015März 2015 >

Februar 2015

TagNiederschlagBemerkung
01.3,5
Schnee Schneegriesel
Schneehöhe: 17 cm
02.7,8
Schnee
Schneehöhe: 20 cm
03.-
Schneehöhe: 27 cm
04.-
Nebelnässe
Schneehöhe: 27 cm
05.0,3
Schneegriesel
Schneehöhe: 26 cm
06.-
Schneehöhe: 26 cm
07.-
Schneegriesel
Schneehöhe: 26 cm
08.0,3
Schneeregen Schneegriesel
Schneehöhe: 26 cm
09.-
Schneehöhe: 24 cm
10.-
Schneehöhe: 23 cm
11.-
Schneehöhe: 21 cm
12.-
Schneehöhe: 19 cm
13.-
14.-
Bodennebel
Schneehöhe: 18 cm
15.-
Bodennebel
Schneehöhe: 16 cm
16.-
Bodennebel
Schneehöhe: 16 cm
17.-
Schneehöhe: 15 cm
18.-
Schneehöhe: 15 cm
19.-
Schneehöhe: 12 cm
20.-
21.-
22.-
23.-
24.-
25.-
26.-
27.-
28.-
Gesamt:11,9 
Die Spalten "Tag" und "Niederschlag" lassen sich durch Klicken auf den Spaltenkopf sortieren.
Die Angaben sind in l/m².

< Januar 2015März 2015 >


Monats- und Jahresniederschlag


Wetterbeobachtungen Legende:

  • Regen
  • Nieselregen
  • Schneeregen
  • Schnee
  • Graupel
  • Eiskörner
  • Hagel
  • Bodennebel
  • Gewitter
  • Nebelnässe
  • Schneegriesel

Grafische Darstellung der Niederschläge der Station Bad Saulgau-Lampertsweiler Februar 2015

 
wetterstationen
wetterstationen
- derzeit 83 Stationen
niederschlagsdatenbank
wetterstationen
- kartographische Darstellung
niederschlagsdatenbank
niederschlagsstationen
- derzeit 112 Stationen
niederschlagsdatenbank
niederschlagsstationen
- kartographische Darstellung
 
  treffpunkt & service
--- Anzeigen --------------------------------
zugriffe:
insgesamt: 46.623.159
aktueller monat: 348
heute: 348
momentan online: 15
 
 
monatshöchstwert: 653.625
vorheriger monat: 364.213
gestern: 13.565
tageshöchstwert: 57.073
 
wetterwarte süd
 
konradstraße 3
info@wetterwarte-sued.com
roland roth
 
88427 bad schussenried